Foster, Oregon
Current Conditions -  °F | °C
As of 12:35 AM on Sunday 21 Dec 2014 (Local Time) from KCVO Reporting Station
Overcast Overcast  
Wind Chill: 57°   Ceiling: 9000
Heat Index: 57°   Visibility: 10mi
Dew Point: 54°   Wind: 12mph
Humidity: 88%   Direction: 250°WSW
Pressure: 29.86"   Gusts: NA
Location:  44.41°N, 122.67°W
Report Text: KCVO 210835Z AUTO 25010KT 10SM FEW032 SCT041 OVC090 14/12 A2986 RMK AO1 P0001
Loading
Personal Weather Stations






























Interactive Weather Map New forecast layout! Learn more

10-Day Weather Forecast

Advertisements
Track Severe Weather on mobile